Time;durP1;ratioP1;P1;durP2;ratioP2;P2;SDS_P1;SDS_P2;PMS_P1;PMS_P2;Temp;Humidity;BMP_temperature;BMP_pressure;BME280_temperature;BME280_humidity;BME280_pressure;Samples;Min_cycle;Max_cycle;Signal;HPM_P1;HPM_P2
2022/01/10 00:01:35;;;;;;;29.77;13.13;;;;;;;;;;4973716;28;20516;-77
2022/01/10 00:04:01;;;;;;;28.00;10.80;;;;;;;;;;4975310;28;20155;-77
2022/01/10 00:06:26;;;;;;;27.55;12.02;;;;;;;;;;4974603;28;20049;-78
2022/01/10 00:08:51;;;;;;;31.38;12.40;;;;;;;;;;4980510;28;20058;-78
2022/01/10 00:11:17;;;;;;;26.27;11.18;;;;;;;;;;4973791;28;20200;-78
2022/01/10 00:13:42;;;;;;;28.20;11.73;;;;;;;;;;4976261;28;20066;-77
2022/01/10 00:16:07;;;;;;;26.77;11.57;;;;;;;;;;4972728;28;20031;-78
2022/01/10 00:18:33;;;;;;;27.45;11.45;;;;;;;;;;4977070;28;20087;-78
2022/01/10 00:20:58;;;;;;;31.92;11.48;;;;;;;;;;4975954;28;20034;-78
2022/01/10 00:23:23;;;;;;;30.60;11.23;;;;;;;;;;4969311;28;20042;-78
2022/01/10 00:25:49;;;;;;;24.73;10.18;;;;;;;;;;4971954;28;20042;-78
2022/01/10 00:28:14;;;;;;;30.92;12.68;;;;;;;;;;4964314;28;20034;-77
2022/01/10 00:30:39;;;;;;;25.10;10.52;;;;;;;;;;4976690;28;20646;-78
2022/01/10 00:33:05;;;;;;;24.58;9.93;;;;;;;;;;4979574;28;20038;-78
2022/01/10 00:35:30;;;;;;;20.17;9.25;;;;;;;;;;4977518;28;20035;-78
2022/01/10 00:37:55;;;;;;;21.52;10.27;;;;;;;;;;4981724;28;20512;-77
2022/01/10 00:40:21;;;;;;;22.65;10.93;;;;;;;;;;4982058;28;20026;-78
2022/01/10 00:42:54;;;;;;;21.30;9.63;;;;;;;;;;4972529;28;20646;-78
2022/01/10 00:45:25;;;;;;;22.70;9.32;;;;;;;;;;4972570;28;20081;-78
2022/01/10 00:47:51;;;;;;;20.65;10.20;;;;;;;;;;5006819;28;20036;-78
2022/01/10 00:50:17;;;;;;;26.88;10.65;;;;;;;;;;4992429;28;20054;-78
2022/01/10 00:52:42;;;;;;;19.58;9.18;;;;;;;;;;4969353;28;20047;-78
2022/01/10 00:55:08;;;;;;;22.63;9.45;;;;;;;;;;4977344;28;20041;-78
2022/01/10 00:57:34;;;;;;;17.38;8.57;;;;;;;;;;4979031;28;20034;-78
2022/01/10 01:00:00;;;;;;;20.20;9.45;;;;;;;;;;4974958;28;20035;-78
2022/01/10 01:02:31;;;;;;;23.67;9.73;;;;;;;;;;4975876;28;20052;-79
2022/01/10 01:04:57;;;;;;;18.50;9.00;;;;;;;;;;4979494;28;20047;-79
2022/01/10 01:07:22;;;;;;;18.08;9.45;;;;;;;;;;4976267;28;20030;-79
2022/01/10 01:09:57;;;;;;;23.38;9.90;;;;;;;;;;4972938;28;20114;-79
2022/01/10 01:15:19;;;;;;;23.83;9.73;;;;;;;;;;4967971;28;20047;-79
2022/01/10 01:17:59;;;;;;;18.45;8.55;;;;;;;;;;4970874;28;20042;-80
2022/01/10 01:20:43;;;;;;;17.05;8.60;;;;;;;;;;4967559;28;20047;-80
2022/01/10 01:25:53;;;;;;;19.65;8.68;;;;;;;;;;4977840;28;19952;-80
2022/01/10 01:28:18;;;;;;;23.00;9.23;;;;;;;;;;4980370;28;20051;-80
2022/01/10 01:30:44;;;;;;;24.80;9.93;;;;;;;;;;4976194;28;20058;-80
2022/01/10 01:33:12;;;;;;;20.85;9.63;;;;;;;;;;4966537;28;20073;-79
2022/01/10 01:35:38;;;;;;;27.08;9.77;;;;;;;;;;4964951;28;20043;-79
2022/01/10 01:38:03;;;;;;;26.55;10.85;;;;;;;;;;4968556;28;20409;-80
2022/01/10 01:40:31;;;;;;;28.65;10.30;;;;;;;;;;4973431;28;20125;-80
2022/01/10 01:42:57;;;;;;;26.35;9.68;;;;;;;;;;4972859;28;20108;-79
2022/01/10 01:45:43;;;;;;;24.85;10.40;;;;;;;;;;4969454;28;20715;-80
2022/01/10 01:48:09;;;;;;;24.48;9.52;;;;;;;;;;4965466;28;20153;-80
2022/01/10 01:50:36;;;;;;;24.25;8.82;;;;;;;;;;4969065;28;20054;-80
2022/01/10 01:53:01;;;;;;;26.73;9.77;;;;;;;;;;4980849;28;20062;-80
2022/01/10 01:55:27;;;;;;;28.83;10.52;;;;;;;;;;4974127;28;20472;-80
2022/01/10 01:57:53;;;;;;;21.13;9.98;;;;;;;;;;4968811;28;20027;-80
2022/01/10 02:00:19;;;;;;;20.52;10.15;;;;;;;;;;4976426;28;20417;-80
2022/01/10 02:02:46;;;;;;;20.83;9.50;;;;;;;;;;4977053;28;20035;-81
2022/01/10 02:05:11;;;;;;;25.60;9.90;;;;;;;;;;4977833;28;20058;-81
2022/01/10 02:07:37;;;;;;;20.10;8.63;;;;;;;;;;5010052;28;20060;-81
2022/01/10 02:10:04;;;;;;;29.42;10.65;;;;;;;;;;5013596;28;20049;-81
2022/01/10 02:12:29;;;;;;;22.73;10.45;;;;;;;;;;4982875;28;20040;-81
2022/01/10 02:14:54;;;;;;;57.33;9.57;;;;;;;;;;4972819;28;20034;-81
2022/01/10 02:17:22;;;;;;;53.25;11.18;;;;;;;;;;4978728;28;20054;-81
2022/01/10 02:19:58;;;;;;;52.33;9.82;;;;;;;;;;4970933;28;20117;-81
2022/01/10 02:22:24;;;;;;;102.95;10.02;;;;;;;;;;4982757;28;20022;-81
2022/01/10 02:24:49;;;;;;;58.85;9.13;;;;;;;;;;4981882;28;20482;-81
2022/01/10 02:27:15;;;;;;;26.55;7.68;;;;;;;;;;4970608;28;20039;-81
2022/01/10 02:29:40;;;;;;;48.47;7.60;;;;;;;;;;4967265;28;20071;-81
2022/01/10 02:32:06;;;;;;;64.05;10.07;;;;;;;;;;4976783;28;20041;-82
2022/01/10 02:34:31;;;;;;;22.98;9.68;;;;;;;;;;4971425;28;20081;-81
2022/01/10 02:36:58;;;;;;;76.70;9.07;;;;;;;;;;4984498;28;20545;-81
2022/01/10 02:39:24;;;;;;;80.68;9.80;;;;;;;;;;4978787;28;20090;-79
2022/01/10 02:41:50;;;;;;;69.22;9.13;;;;;;;;;;4979580;28;20452;-80
2022/01/10 02:44:17;;;;;;;80.60;10.35;;;;;;;;;;4965525;28;20108;-81
2022/01/10 02:46:43;;;;;;;92.90;9.63;;;;;;;;;;4975081;28;20031;-81
2022/01/10 02:49:23;;;;;;;71.53;10.45;;;;;;;;;;4973931;28;20030;-80
2022/01/10 02:51:48;;;;;;;48.05;9.68;;;;;;;;;;4979190;28;20026;-80
2022/01/10 02:54:14;;;;;;;106.45;11.30;;;;;;;;;;4966461;28;20035;-81
2022/01/10 02:56:52;;;;;;;77.15;8.98;;;;;;;;;;4984360;28;20031;-81
2022/01/10 02:59:19;;;;;;;46.55;7.45;;;;;;;;;;4966611;28;20420;-81
2022/01/10 03:01:44;;;;;;;20.98;7.60;;;;;;;;;;4984524;28;20469;-81
2022/01/10 03:04:10;;;;;;;44.42;9.10;;;;;;;;;;4977268;28;20657;-81
2022/01/10 03:06:37;;;;;;;68.65;7.43;;;;;;;;;;4972338;28;20060;-81
2022/01/10 03:09:05;;;;;;;40.08;6.93;;;;;;;;;;4992515;28;20046;-80
2022/01/10 03:11:35;;;;;;;31.13;6.70;;;;;;;;;;4969956;28;20031;-80
2022/01/10 03:14:01;;;;;;;57.95;6.47;;;;;;;;;;4973503;28;20042;-81
2022/01/10 03:16:26;;;;;;;49.65;5.35;;;;;;;;;;4983068;28;20400;-80
2022/01/10 03:18:51;;;;;;;110.07;6.82;;;;;;;;;;4974953;28;20165;-80
2022/01/10 03:21:19;;;;;;;56.97;5.90;;;;;;;;;;4983960;28;20034;-80
2022/01/10 03:23:45;;;;;;;103.05;7.18;;;;;;;;;;4978683;28;20042;-81
2022/01/10 03:26:11;;;;;;;108.60;7.22;;;;;;;;;;4980080;28;20038;-80
2022/01/10 03:28:36;;;;;;;118.45;7.78;;;;;;;;;;4976175;28;20035;-80
2022/01/10 03:31:01;;;;;;;69.97;7.20;;;;;;;;;;4972329;28;20030;-80
2022/01/10 03:33:27;;;;;;;107.82;6.20;;;;;;;;;;4981367;28;20046;-81
2022/01/10 03:35:52;;;;;;;95.55;5.60;;;;;;;;;;4978063;28;20043;-81
2022/01/10 03:38:18;;;;;;;26.00;3.70;;;;;;;;;;4972387;28;20069;-81
2022/01/10 03:40:43;;;;;;;89.32;6.65;;;;;;;;;;4976887;28;20106;-80
2022/01/10 03:43:09;;;;;;;86.35;6.70;;;;;;;;;;4979897;28;20400;-80
2022/01/10 03:45:34;;;;;;;66.93;6.78;;;;;;;;;;4976821;28;20061;-80
2022/01/10 03:48:00;;;;;;;135.65;7.85;;;;;;;;;;4978301;28;20080;-80
2022/01/10 03:50:25;;;;;;;88.28;6.47;;;;;;;;;;4982283;28;20122;-80
2022/01/10 03:52:51;;;;;;;79.00;6.47;;;;;;;;;;4978156;28;20571;-80
2022/01/10 03:55:16;;;;;;;49.30;4.15;;;;;;;;;;4978549;28;20125;-80
2022/01/10 03:57:41;;;;;;;61.10;5.97;;;;;;;;;;4976964;28;20038;-81
2022/01/10 04:00:08;;;;;;;88.47;8.10;;;;;;;;;;4974333;28;20535;-80
2022/01/10 04:02:35;;;;;;;80.65;6.88;;;;;;;;;;4981078;28;20096;-81
2022/01/10 04:05:00;;;;;;;140.55;7.90;;;;;;;;;;4965788;28;20038;-80
2022/01/10 04:07:26;;;;;;;146.68;9.13;;;;;;;;;;4974364;28;20035;-80
2022/01/10 04:09:51;;;;;;;163.07;9.02;;;;;;;;;;4982507;28;20030;-81
2022/01/10 04:12:16;;;;;;;113.80;7.35;;;;;;;;;;4981767;28;20095;-80
2022/01/10 04:14:42;;;;;;;202.88;9.73;;;;;;;;;;4977445;28;20544;-80
2022/01/10 04:17:07;;;;;;;139.82;8.48;;;;;;;;;;4979121;28;20141;-80
2022/01/10 04:19:32;;;;;;;115.60;6.90;;;;;;;;;;4969239;28;20046;-80
2022/01/10 04:21:58;;;;;;;45.35;6.45;;;;;;;;;;4968035;28;20052;-80
2022/01/10 04:24:23;;;;;;;102.85;7.35;;;;;;;;;;4974294;28;20084;-80
2022/01/10 04:26:48;;;;;;;208.57;9.27;;;;;;;;;;4978994;28;20103;-80
2022/01/10 04:29:14;;;;;;;84.40;6.95;;;;;;;;;;4976136;28;20039;-80
2022/01/10 04:31:39;;;;;;;150.90;7.90;;;;;;;;;;4983466;28;20113;-80
2022/01/10 04:34:04;;;;;;;49.67;5.65;;;;;;;;;;4978859;28;20157;-80
2022/01/10 04:36:30;;;;;;;196.32;9.10;;;;;;;;;;4973209;28;20713;-80
2022/01/10 04:38:55;;;;;;;118.45;7.10;;;;;;;;;;4981117;28;20504;-80
2022/01/10 04:41:21;;;;;;;67.93;5.97;;;;;;;;;;4984244;28;20034;-80
2022/01/10 04:43:46;;;;;;;166.63;8.90;;;;;;;;;;4980358;28;20058;-80
2022/01/10 04:46:11;;;;;;;98.68;7.32;;;;;;;;;;4966383;28;20022;-80
2022/01/10 04:48:37;;;;;;;66.10;6.53;;;;;;;;;;4980361;28;20030;-80
2022/01/10 04:51:19;;;;;;;70.88;6.65;;;;;;;;;;4976118;28;20125;-80
2022/01/10 04:53:48;;;;;;;128.77;7.88;;;;;;;;;;4978457;28;20023;-80
2022/01/10 04:56:16;;;;;;;39.13;4.93;;;;;;;;;;4997710;28;20117;-80
2022/01/10 04:58:42;;;;;;;86.80;6.22;;;;;;;;;;5043005;28;20042;-80
2022/01/10 05:01:08;;;;;;;113.70;6.38;;;;;;;;;;4978376;28;20027;-80
2022/01/10 05:03:34;;;;;;;139.20;9.15;;;;;;;;;;4966144;28;20436;-80
2022/01/10 05:05:59;;;;;;;68.15;8.15;;;;;;;;;;4983423;28;20114;-80
2022/01/10 05:08:25;;;;;;;175.63;10.38;;;;;;;;;;4972427;28;20042;-79
2022/01/10 05:10:51;;;;;;;127.80;10.25;;;;;;;;;;4972712;28;20037;-80
2022/01/10 05:13:17;;;;;;;125.05;11.05;;;;;;;;;;4980393;28;20019;-79
2022/01/10 05:15:46;;;;;;;83.53;9.60;;;;;;;;;;4970646;28;20492;-80
2022/01/10 05:18:11;;;;;;;165.32;14.75;;;;;;;;;;4984681;28;20034;-79
2022/01/10 05:20:37;;;;;;;232.75;17.05;;;;;;;;;;4978211;28;20039;-80
2022/01/10 05:23:02;;;;;;;255.90;18.77;;;;;;;;;;4980442;28;20035;-80
2022/01/10 05:25:27;;;;;;;202.95;14.98;;;;;;;;;;4968334;28;20039;-80
2022/01/10 05:27:53;;;;;;;230.30;13.48;;;;;;;;;;4967583;28;20050;-80
2022/01/10 05:30:19;;;;;;;146.45;11.95;;;;;;;;;;4976367;28;20062;-80
2022/01/10 05:32:44;;;;;;;156.18;13.10;;;;;;;;;;4975196;28;20078;-80
2022/01/10 05:35:09;;;;;;;233.73;11.70;;;;;;;;;;4975973;28;20425;-80
2022/01/10 05:37:35;;;;;;;132.55;8.55;;;;;;;;;;4990945;28;20411;-80
2022/01/10 05:40:00;;;;;;;128.73;9.60;;;;;;;;;;4982446;28;20518;-80
2022/01/10 05:42:26;;;;;;;192.23;11.18;;;;;;;;;;4982815;28;20068;-80
2022/01/10 05:44:51;;;;;;;88.40;5.97;;;;;;;;;;4981186;28;20074;-80
2022/01/10 05:47:16;;;;;;;181.07;9.90;;;;;;;;;;4982440;28;20107;-79
2022/01/10 05:49:47;;;;;;;126.68;7.85;;;;;;;;;;4992967;28;20050;-79
2022/01/10 05:52:13;;;;;;;157.02;7.82;;;;;;;;;;4974975;28;20033;-80
2022/01/10 05:54:38;;;;;;;119.40;6.38;;;;;;;;;;4979497;28;20034;-80
2022/01/10 05:57:04;;;;;;;124.75;5.53;;;;;;;;;;4969859;28;20035;-80
2022/01/10 05:59:31;;;;;;;72.35;4.57;;;;;;;;;;4986727;28;20166;-80
2022/01/10 06:01:57;;;;;;;172.63;6.53;;;;;;;;;;4978457;28;20039;-80
2022/01/10 06:04:22;;;;;;;134.20;5.90;;;;;;;;;;4968765;28;20488;-79
2022/01/10 06:06:48;;;;;;;93.55;5.20;;;;;;;;;;4977951;28;20483;-80
2022/01/10 06:09:13;;;;;;;99.82;5.03;;;;;;;;;;4989225;28;20427;-80
2022/01/10 06:11:40;;;;;;;41.10;3.60;;;;;;;;;;4977879;28;20047;-80
2022/01/10 06:14:05;;;;;;;68.50;5.60;;;;;;;;;;4978651;28;20452;-80
2022/01/10 06:16:31;;;;;;;75.82;5.15;;;;;;;;;;4974684;28;20047;-80
2022/01/10 06:18:56;;;;;;;98.53;5.47;;;;;;;;;;4986864;28;20022;-80
2022/01/10 06:21:21;;;;;;;119.25;6.00;;;;;;;;;;4972430;28;20053;-80
2022/01/10 06:23:47;;;;;;;75.90;5.35;;;;;;;;;;4972096;28;20034;-79
2022/01/10 06:26:12;;;;;;;161.65;6.72;;;;;;;;;;4977135;28;20038;-79
2022/01/10 06:28:37;;;;;;;116.30;6.20;;;;;;;;;;4981793;28;20038;-79
2022/01/10 06:31:03;;;;;;;227.60;8.57;;;;;;;;;;4992451;28;20022;-79
2022/01/10 06:33:28;;;;;;;165.57;6.35;;;;;;;;;;4971582;28;20043;-79
2022/01/10 06:35:54;;;;;;;137.73;7.22;;;;;;;;;;4969867;28;20035;-79
2022/01/10 06:38:19;;;;;;;159.55;7.15;;;;;;;;;;4974521;28;20045;-80
2022/01/10 06:40:44;;;;;;;147.82;6.78;;;;;;;;;;4970273;28;20043;-79
2022/01/10 06:43:10;;;;;;;96.85;5.15;;;;;;;;;;4971112;28;20031;-79
2022/01/10 06:45:37;;;;;;;170.57;7.78;;;;;;;;;;4973928;28;20033;-79
2022/01/10 06:48:03;;;;;;;151.68;8.20;;;;;;;;;;4970452;28;20042;-79
2022/01/10 06:50:29;;;;;;;163.95;7.32;;;;;;;;;;4977231;28;20433;-79
2022/01/10 06:52:55;;;;;;;180.70;10.05;;;;;;;;;;4984854;28;20046;-80
2022/01/10 06:55:21;;;;;;;96.47;8.57;;;;;;;;;;4971190;28;20042;-79
2022/01/10 06:57:46;;;;;;;219.15;14.32;;;;;;;;;;4968658;28;20033;-79
2022/01/10 07:00:12;;;;;;;124.05;11.50;;;;;;;;;;4979078;28;20524;-79
2022/01/10 07:02:37;;;;;;;182.18;11.10;;;;;;;;;;4975360;28;20047;-79
2022/01/10 07:05:03;;;;;;;104.57;9.20;;;;;;;;;;4977837;28;20057;-79
2022/01/10 07:07:28;;;;;;;177.27;10.70;;;;;;;;;;4972717;28;20066;-79
2022/01/10 07:09:54;;;;;;;158.20;9.05;;;;;;;;;;4976451;28;20066;-79
2022/01/10 07:12:19;;;;;;;116.55;9.02;;;;;;;;;;4966690;28;20530;-79
2022/01/10 07:14:44;;;;;;;140.88;9.75;;;;;;;;;;4978044;28;20164;-79
2022/01/10 07:17:10;;;;;;;115.20;7.15;;;;;;;;;;4972734;28;20406;-79
2022/01/10 07:19:36;;;;;;;90.20;6.82;;;;;;;;;;5059570;28;20050;-79
2022/01/10 07:22:02;;;;;;;157.68;9.18;;;;;;;;;;4974843;28;20022;-79
2022/01/10 07:24:28;;;;;;;198.00;8.68;;;;;;;;;;4978179;28;20071;-78
2022/01/10 07:26:53;;;;;;;137.43;7.65;;;;;;;;;;4984030;28;20439;-79
2022/01/10 07:29:19;;;;;;;224.80;8.18;;;;;;;;;;4973987;28;20376;-79
2022/01/10 07:31:44;;;;;;;166.52;7.40;;;;;;;;;;4973608;28;20034;-79
2022/01/10 07:34:15;;;;;;;182.60;8.23;;;;;;;;;;4968110;28;20038;-79
2022/01/10 07:36:41;;;;;;;180.18;7.88;;;;;;;;;;4975451;28;20602;-79
2022/01/10 07:39:08;;;;;;;203.77;8.00;;;;;;;;;;4979340;28;20039;-79
2022/01/10 07:41:33;;;;;;;152.52;7.65;;;;;;;;;;4978471;28;20038;-79
2022/01/10 07:43:59;;;;;;;194.30;8.05;;;;;;;;;;4987072;28;20050;-79
2022/01/10 07:46:25;;;;;;;228.15;8.80;;;;;;;;;;4974100;28;20047;-79
2022/01/10 07:48:52;;;;;;;171.25;7.80;;;;;;;;;;4979416;28;20012;-79
2022/01/10 07:51:18;;;;;;;171.18;9.20;;;;;;;;;;4980661;28;20114;-79
2022/01/10 07:53:43;;;;;;;230.82;9.00;;;;;;;;;;4982512;28;20172;-78
2022/01/10 07:56:09;;;;;;;117.85;7.45;;;;;;;;;;4966605;28;20076;-78
2022/01/10 07:58:37;;;;;;;246.93;9.88;;;;;;;;;;4964860;28;20393;-78
2022/01/10 08:01:03;;;;;;;180.57;7.75;;;;;;;;;;4970244;28;20027;-79
2022/01/10 08:03:28;;;;;;;148.43;7.45;;;;;;;;;;4978848;28;20121;-78
2022/01/10 08:05:54;;;;;;;233.85;8.82;;;;;;;;;;4971873;28;20099;-78
2022/01/10 08:08:20;;;;;;;233.45;8.25;;;;;;;;;;5037756;28;20584;-79
2022/01/10 08:10:45;;;;;;;175.90;7.32;;;;;;;;;;5004877;28;20055;-78
2022/01/10 08:13:11;;;;;;;171.95;7.10;;;;;;;;;;4970515;28;20076;-79
2022/01/10 08:15:36;;;;;;;127.47;6.68;;;;;;;;;;4979108;28;20391;-79
2022/01/10 08:18:03;;;;;;;253.02;9.48;;;;;;;;;;5010716;28;20039;-79
2022/01/10 08:20:29;;;;;;;126.90;7.72;;;;;;;;;;4964530;28;20050;-78
2022/01/10 08:22:54;;;;;;;117.88;5.97;;;;;;;;;;4964974;28;20080;-79
2022/01/10 08:25:19;;;;;;;138.80;6.57;;;;;;;;;;4964390;28;20027;-78
2022/01/10 08:27:45;;;;;;;124.45;6.80;;;;;;;;;;4972512;28;20057;-79
2022/01/10 08:30:11;;;;;;;124.20;7.13;;;;;;;;;;4978682;28;20088;-78
2022/01/10 08:32:37;;;;;;;186.32;7.90;;;;;;;;;;4974189;28;20046;-73
2022/01/10 08:35:03;;;;;;;116.18;6.18;;;;;;;;;;4969840;28;20535;-78
2022/01/10 08:37:29;;;;;;;142.52;7.47;;;;;;;;;;5061589;28;20040;-77
2022/01/10 08:39:54;;;;;;;95.65;5.88;;;;;;;;;;4977358;28;20038;-75
2022/01/10 08:42:20;;;;;;;183.50;7.97;;;;;;;;;;5017529;28;20155;-75
2022/01/10 08:44:47;;;;;;;94.55;6.00;;;;;;;;;;4975715;28;20049;-79
2022/01/10 08:47:13;;;;;;;117.43;7.57;;;;;;;;;;4969340;28;20494;-73
2022/01/10 08:49:39;;;;;;;146.23;7.88;;;;;;;;;;4973020;28;20065;-76
2022/01/10 08:52:04;;;;;;;112.43;8.40;;;;;;;;;;4979822;28;20789;-77
2022/01/10 08:54:30;;;;;;;107.40;8.60;;;;;;;;;;4976079;28;20470;-75
2022/01/10 08:56:55;;;;;;;133.23;6.95;;;;;;;;;;4975296;28;20049;-76
2022/01/10 08:59:21;;;;;;;106.65;8.43;;;;;;;;;;4971345;28;20065;-76
2022/01/10 09:01:47;;;;;;;84.05;7.55;;;;;;;;;;4973887;28;20515;-76
2022/01/10 09:04:16;;;;;;;80.97;6.65;;;;;;;;;;4980401;28;20030;-74
2022/01/10 09:06:49;;;;;;;48.53;6.30;;;;;;;;;;4967724;28;20430;-81
2022/01/10 09:09:15;;;;;;;134.63;9.45;;;;;;;;;;4972720;28;20480;-77
2022/01/10 09:11:42;;;;;;;78.05;5.60;;;;;;;;;;4969225;28;20576;-80
2022/01/10 09:14:09;;;;;;;60.20;5.10;;;;;;;;;;4973513;28;20042;-77
2022/01/10 09:16:35;;;;;;;69.97;5.57;;;;;;;;;;4968097;28;20512;-75
2022/01/10 09:19:01;;;;;;;33.60;3.97;;;;;;;;;;4974563;28;20041;-75
2022/01/10 09:21:26;;;;;;;25.75;3.15;;;;;;;;;;4975846;28;20129;-77
2022/01/10 09:23:52;;;;;;;69.00;4.95;;;;;;;;;;4978170;28;20047;-76
2022/01/10 09:26:17;;;;;;;63.47;4.88;;;;;;;;;;4970991;28;20058;-78
2022/01/10 09:28:43;;;;;;;56.97;4.47;;;;;;;;;;4968124;28;20167;-77
2022/01/10 09:31:10;;;;;;;45.63;3.75;;;;;;;;;;4966339;28;20501;-77
2022/01/10 09:33:35;;;;;;;69.60;4.45;;;;;;;;;;4969244;28;20026;-75
2022/01/10 09:36:01;;;;;;;125.35;6.50;;;;;;;;;;4976439;28;20115;-79
2022/01/10 09:38:27;;;;;;;76.68;5.40;;;;;;;;;;4976906;28;20089;-80
2022/01/10 09:40:53;;;;;;;74.90;5.82;;;;;;;;;;4969699;28;20047;-77
2022/01/10 09:43:18;;;;;;;34.88;6.65;;;;;;;;;;4969644;28;20022;-76
2022/01/10 09:45:45;;;;;;;61.97;6.53;;;;;;;;;;4970981;28;20096;-75
2022/01/10 09:48:10;;;;;;;38.15;4.95;;;;;;;;;;4968097;28;20218;-74
2022/01/10 09:50:36;;;;;;;60.70;6.53;;;;;;;;;;4972500;28;20530;-76
2022/01/10 09:53:03;;;;;;;54.53;7.38;;;;;;;;;;4970630;28;20500;-74
2022/01/10 09:55:31;;;;;;;43.75;7.20;;;;;;;;;;4969332;28;20046;-75
2022/01/10 09:57:58;;;;;;;27.55;7.43;;;;;;;;;;4967309;28;20080;-71
2022/01/10 10:00:24;;;;;;;54.95;5.70;;;;;;;;;;4969400;28;20054;-79
2022/01/10 10:02:49;;;;;;;20.95;6.22;;;;;;;;;;4967685;28;20047;-78
2022/01/10 10:05:16;;;;;;;58.92;5.15;;;;;;;;;;4974172;28;20050;-78
2022/01/10 10:07:41;;;;;;;34.38;6.00;;;;;;;;;;4970201;28;20034;-78
2022/01/10 10:10:11;;;;;;;45.75;7.40;;;;;;;;;;4970414;28;20022;-78
2022/01/10 10:12:43;;;;;;;65.68;8.25;;;;;;;;;;4972065;28;20098;-75
2022/01/10 10:15:12;;;;;;;110.65;8.82;;;;;;;;;;4973600;28;20043;-75
2022/01/10 10:17:38;;;;;;;44.25;7.57;;;;;;;;;;4976776;28;20042;-76
2022/01/10 10:20:15;;;;;;;43.50;7.05;;;;;;;;;;4975475;28;20516;-78
2022/01/10 10:22:43;;;;;;;73.18;7.18;;;;;;;;;;5011786;28;20039;-77
2022/01/10 10:25:10;;;;;;;52.35;6.18;;;;;;;;;;4984709;28;20030;-78
2022/01/10 10:27:38;;;;;;;54.83;5.25;;;;;;;;;;4984278;28;20509;-77
2022/01/10 10:30:06;;;;;;;77.45;7.85;;;;;;;;;;4969008;28;20656;-78
2022/01/10 10:32:32;;;;;;;54.38;6.97;;;;;;;;;;4976473;28;20034;-77
2022/01/10 10:34:57;;;;;;;53.40;7.78;;;;;;;;;;4978159;28;20045;-78
2022/01/10 10:37:23;;;;;;;62.13;7.03;;;;;;;;;;4976329;28;20057;-79
2022/01/10 10:39:48;;;;;;;98.18;7.70;;;;;;;;;;4974001;28;20137;-78
2022/01/10 10:42:15;;;;;;;90.05;7.55;;;;;;;;;;4979000;28;20073;-73
2022/01/10 10:44:44;;;;;;;70.28;8.20;;;;;;;;;;4974597;28;20061;-78
2022/01/10 10:47:16;;;;;;;49.40;7.05;;;;;;;;;;4973033;28;20078;-76
2022/01/10 10:49:46;;;;;;;34.40;8.32;;;;;;;;;;4981163;28;20044;-78
2022/01/10 10:52:12;;;;;;;55.13;9.25;;;;;;;;;;4974046;28;20789;-77
2022/01/10 10:54:39;;;;;;;29.98;8.50;;;;;;;;;;4987537;28;20031;-77
2022/01/10 10:57:06;;;;;;;13.43;6.15;;;;;;;;;;4972587;28;20047;-77
2022/01/10 10:59:35;;;;;;;39.22;8.60;;;;;;;;;;4964329;28;20149;-76
2022/01/10 11:02:02;;;;;;;52.60;7.13;;;;;;;;;;4971142;28;20118;-77
2022/01/10 11:09:37;;;;;;;23.67;7.05;;;;;;;;;;5118306;22;20975;-77
2022/01/10 11:12:02;;;;;;;33.53;8.02;;;;;;;;;;5030691;28;20041;-77
2022/01/10 11:14:27;;;;;;;25.38;7.72;;;;;;;;;;5018266;28;20409;-79
2022/01/10 11:16:54;;;;;;;23.10;7.55;;;;;;;;;;5038358;28;20037;-76
2022/01/10 11:19:28;;;;;;;27.15;7.82;;;;;;;;;;5029138;28;20120;-75
2022/01/10 11:22:05;;;;;;;19.92;7.30;;;;;;;;;;5059722;28;20104;-75
2022/01/10 11:24:49;;;;;;;26.02;7.13;;;;;;;;;;5021662;28;20098;-76
2022/01/10 11:27:33;;;;;;;24.52;7.15;;;;;;;;;;5042829;28;21223;-74
2022/01/10 11:30:02;;;;;;;21.55;7.03;;;;;;;;;;5045417;28;20592;-74
2022/01/10 11:32:54;;;;;;;34.75;7.13;;;;;;;;;;5024738;28;20091;-74
2022/01/10 11:35:20;;;;;;;20.73;6.85;;;;;;;;;;5043196;28;20413;-74
2022/01/10 11:37:46;;;;;;;32.83;7.32;;;;;;;;;;5045107;28;20033;-74
2022/01/10 11:40:13;;;;;;;30.60;7.32;;;;;;;;;;5042951;28;20025;-74
2022/01/10 11:42:52;;;;;;;19.45;8.45;;;;;;;;;;5045256;28;20028;-74
2022/01/10 11:45:17;;;;;;;17.58;6.68;;;;;;;;;;5025254;28;20033;-74
2022/01/10 11:48:01;;;;;;;18.65;7.68;;;;;;;;;;5049346;28;20414;-74
2022/01/10 11:50:27;;;;;;;;;;;;;;;;;;5045560;28;20037;-74
2022/01/10 11:53:03;;;;;;;17.02;6.90;;;;;;;;;;5051606;28;19927;-74
2022/01/10 11:55:51;;;;;;;24.88;7.03;;;;;;;;;;5041668;28;20033;-74
2022/01/10 11:58:19;;;;;;;15.50;6.53;;;;;;;;;;5016270;28;20534;-74
2022/01/10 12:00:45;;;;;;;12.00;5.07;;;;;;;;;;5035057;28;20079;-74
2022/01/10 12:03:11;;;;;;;16.63;4.70;;;;;;;;;;5043992;28;20037;-74
2022/01/10 12:05:37;;;;;;;19.55;6.10;;;;;;;;;;5044673;28;20041;-74
2022/01/10 12:08:06;;;;;;;22.08;6.25;;;;;;;;;;5046977;28;20056;-73
2022/01/10 12:10:32;;;;;;;33.20;4.95;;;;;;;;;;5029295;28;20214;-74
2022/01/10 12:13:09;;;;;;;21.58;5.25;;;;;;;;;;5035998;28;20044;-74
2022/01/10 12:15:36;;;;;;;18.45;4.85;;;;;;;;;;5036870;28;20534;-74
2022/01/10 12:18:03;;;;;;;9.73;4.22;;;;;;;;;;5031695;28;20392;-74
2022/01/10 12:20:28;;;;;;;10.35;3.83;;;;;;;;;;5025416;28;20183;-74
2022/01/10 12:22:55;;;;;;;9.65;4.03;;;;;;;;;;5029353;28;20116;-75
2022/01/10 12:25:21;;;;;;;16.10;4.90;;;;;;;;;;5026722;28;20020;-74
2022/01/10 12:27:53;;;;;;;15.00;4.82;;;;;;;;;;5031109;28;20033;-74
2022/01/10 12:30:18;;;;;;;15.20;5.53;;;;;;;;;;5042732;28;20120;-74
2022/01/10 12:32:45;;;;;;;24.73;5.93;;;;;;;;;;5026914;28;20124;-74
2022/01/10 12:35:11;;;;;;;14.85;5.60;;;;;;;;;;5029456;28;20041;-74
2022/01/10 12:37:36;;;;;;;15.73;5.88;;;;;;;;;;5029224;28;20033;-74
2022/01/10 12:40:03;;;;;;;17.50;6.35;;;;;;;;;;5027902;28;20649;-74
2022/01/10 12:42:29;;;;;;;18.83;6.10;;;;;;;;;;5027926;28;20076;-74
2022/01/10 12:44:54;;;;;;;20.92;5.93;;;;;;;;;;5028070;28;20136;-74
2022/01/10 12:47:20;;;;;;;24.85;6.88;;;;;;;;;;5030057;28;20130;-74
2022/01/10 12:49:47;;;;;;;12.23;5.13;;;;;;;;;;5031008;28;20043;-74
2022/01/10 12:52:14;;;;;;;18.33;6.50;;;;;;;;;;5032955;28;20053;-74
2022/01/10 12:54:40;;;;;;;14.40;6.30;;;;;;;;;;5033964;28;20064;-74
2022/01/10 12:57:06;;;;;;;18.50;7.13;;;;;;;;;;5036192;28;20029;-74
2022/01/10 12:59:34;;;;;;;17.77;6.72;;;;;;;;;;5028333;28;20041;-74
2022/01/10 13:02:01;;;;;;;14.70;6.43;;;;;;;;;;5025926;28;20083;-74
2022/01/10 13:04:31;;;;;;;17.30;6.90;;;;;;;;;;5028842;28;21385;-74
2022/01/10 13:06:58;;;;;;;14.57;6.03;;;;;;;;;;5030848;28;20448;-78
2022/01/10 13:09:24;;;;;;;17.88;5.95;;;;;;;;;;5034410;28;20091;-71
2022/01/10 13:12:02;;;;;;;15.50;6.63;;;;;;;;;;5038547;28;20040;-82
2022/01/10 13:14:34;;;;;;;21.15;7.07;;;;;;;;;;5033916;28;20076;-79
2022/01/10 13:17:03;;;;;;;18.98;7.15;;;;;;;;;;5055105;28;20036;-79
2022/01/10 13:19:30;;;;;;;13.23;5.05;;;;;;;;;;5046360;28;20046;-79
2022/01/10 13:22:03;;;;;;;21.02;8.23;;;;;;;;;;5050439;28;20186;-80
2022/01/10 13:24:31;;;;;;;21.98;7.97;;;;;;;;;;5053148;28;20854;-79
2022/01/10 13:27:07;;;;;;;17.23;7.15;;;;;;;;;;5040910;28;20865;-78
2022/01/10 13:29:43;;;;;;;8.07;4.25;;;;;;;;;;5036878;28;20036;-79
2022/01/10 13:32:28;;;;;;;20.58;7.88;;;;;;;;;;5035323;28;20072;-74
2022/01/10 13:34:59;;;;;;;35.75;11.02;;;;;;;;;;5049334;28;20036;-73
2022/01/10 13:37:45;;;;;;;28.10;9.02;;;;;;;;;;5040378;28;20057;-73
2022/01/10 13:40:25;;;;;;;36.47;10.50;;;;;;;;;;5034810;28;20040;-72
2022/01/10 13:42:54;;;;;;;33.60;11.20;;;;;;;;;;5049363;28;20044;-74
2022/01/10 13:45:51;;;;;;;35.95;11.63;;;;;;;;;;5032295;28;20886;-73
2022/01/10 13:48:40;;;;;;;30.55;10.75;;;;;;;;;;5046727;28;20029;-75
2022/01/10 13:51:18;;;;;;;23.95;8.13;;;;;;;;;;5037144;28;20037;-77
2022/01/10 13:53:46;;;;;;;38.17;12.18;;;;;;;;;;5033572;28;20709;-77
2022/01/10 13:56:19;;;;;;;38.40;12.40;;;;;;;;;;5054907;28;20041;-79
2022/01/10 13:59:14;;;;;;;43.13;13.32;;;;;;;;;;5052896;28;20074;-77
2022/01/10 14:01:41;;;;;;;34.95;11.82;;;;;;;;;;5018728;28;20055;-77
2022/01/10 14:04:34;;;;;;;37.35;13.32;;;;;;;;;;5050387;28;20150;-73
2022/01/10 14:07:05;;;;;;;37.37;11.30;;;;;;;;;;5051511;28;20096;-74
2022/01/10 14:09:33;;;;;;;48.97;15.30;;;;;;;;;;5037385;28;20422;-76
2022/01/10 14:11:58;;;;;;;47.10;16.15;;;;;;;;;;5029036;28;20119;-75
2022/01/10 14:14:27;;;;;;;44.17;16.75;;;;;;;;;;5026495;28;20061;-75
2022/01/10 14:16:55;;;;;;;36.83;13.60;;;;;;;;;;5038391;28;20037;-77
2022/01/10 14:19:24;;;;;;;42.25;15.13;;;;;;;;;;5035853;28;20033;-77
2022/01/10 14:21:50;;;;;;;49.75;16.63;;;;;;;;;;5027201;28;20041;-79
2022/01/10 14:24:19;;;;;;;47.45;15.40;;;;;;;;;;5040090;28;20533;-79
2022/01/10 14:26:45;;;;;;;42.60;16.75;;;;;;;;;;5041629;28;20053;-79
2022/01/10 14:29:10;;;;;;;42.88;13.60;;;;;;;;;;5034331;28;20041;-79
2022/01/10 14:31:35;;;;;;;26.48;10.38;;;;;;;;;;5037942;28;20120;-78
2022/01/10 14:34:02;;;;;;;41.55;13.07;;;;;;;;;;5040164;28;20429;-79
2022/01/10 14:36:27;;;;;;;35.10;11.98;;;;;;;;;;5032661;28;20045;-79